createdAt,value
2023-03-29T00:00:58.895Z,22.80
2023-03-29T00:01:58.817Z,22.80
2023-03-29T00:02:58.888Z,22.79
2023-03-29T00:04:00.444Z,22.79
2023-03-29T00:04:58.754Z,22.80
2023-03-29T00:05:58.773Z,22.80
2023-03-29T00:06:58.775Z,22.80
2023-03-29T00:07:58.742Z,22.81
2023-03-29T00:08:58.741Z,22.81
2023-03-29T00:09:58.752Z,22.81
2023-03-29T00:10:58.724Z,22.81
2023-03-29T00:11:58.729Z,22.81
2023-03-29T00:12:58.776Z,22.81
2023-03-29T00:13:58.673Z,22.81
2023-03-29T00:14:58.674Z,22.81
2023-03-29T00:15:58.652Z,22.81
2023-03-29T00:16:59.026Z,22.80
2023-03-29T00:17:58.722Z,22.81
2023-03-29T00:18:58.654Z,22.80
2023-03-29T00:19:58.640Z,22.81
2023-03-29T00:20:58.755Z,22.81
2023-03-29T00:21:58.695Z,22.81
2023-03-29T00:22:58.628Z,22.82
2023-03-29T00:23:58.683Z,22.81
2023-03-29T00:24:58.596Z,22.80
2023-03-29T00:25:58.601Z,22.80
2023-03-29T00:26:58.603Z,22.81
2023-03-29T00:27:58.623Z,22.81
2023-03-29T00:28:58.585Z,22.81
2023-03-29T00:29:58.583Z,22.81
2023-03-29T00:30:58.625Z,22.81
2023-03-29T00:31:58.674Z,22.81
2023-03-29T00:32:58.587Z,22.81
2023-03-29T00:33:58.537Z,22.81
2023-03-29T00:34:58.526Z,22.80
2023-03-29T00:35:58.544Z,22.80
2023-03-29T00:36:58.528Z,22.80
2023-03-29T00:37:58.512Z,22.80
2023-03-29T00:38:58.479Z,22.81
2023-03-29T00:39:58.497Z,22.81
2023-03-29T00:40:58.557Z,22.81
2023-03-29T00:41:58.487Z,22.81
2023-03-29T00:42:58.512Z,22.81
2023-03-29T00:43:58.462Z,22.80
2023-03-29T00:44:58.499Z,22.80
2023-03-29T00:45:58.454Z,22.80
2023-03-29T00:46:58.454Z,22.80
2023-03-29T00:47:58.535Z,22.80
2023-03-29T00:48:58.459Z,22.80
2023-03-29T00:49:58.430Z,22.79
2023-03-29T00:50:58.429Z,22.80
2023-03-29T00:51:58.432Z,22.79
2023-03-29T00:52:58.415Z,22.80
2023-03-29T00:53:58.397Z,22.80
2023-03-29T00:54:58.405Z,22.80
2023-03-29T00:55:58.401Z,22.80
2023-03-29T00:56:58.401Z,22.80
2023-03-29T00:57:58.373Z,22.79
2023-03-29T00:58:58.391Z,22.79
2023-03-29T00:59:58.350Z,22.79
2023-03-29T01:00:58.328Z,22.79
2023-03-29T01:01:58.385Z,22.80
2023-03-29T01:02:58.419Z,22.79
2023-03-29T01:03:58.346Z,22.79
2023-03-29T01:04:58.316Z,22.80
2023-03-29T01:05:58.303Z,22.80
2023-03-29T01:06:58.364Z,22.80
2023-03-29T01:07:58.328Z,22.80
2023-03-29T01:08:58.283Z,22.80
2023-03-29T01:09:58.262Z,22.80
2023-03-29T01:10:58.252Z,22.80
2023-03-29T01:11:58.269Z,22.80
2023-03-29T01:12:58.382Z,22.80
2023-03-29T01:13:58.273Z,22.80
2023-03-29T01:14:58.245Z,22.80
2023-03-29T01:15:58.255Z,22.80
2023-03-29T01:16:58.215Z,22.81
2023-03-29T01:17:58.421Z,22.81
2023-03-29T01:18:58.280Z,22.81
2023-03-29T01:19:58.338Z,22.80
2023-03-29T01:20:58.183Z,22.80
2023-03-29T01:21:58.173Z,22.80
2023-03-29T01:22:58.175Z,22.79
2023-03-29T01:23:58.265Z,22.80
2023-03-29T01:24:58.142Z,22.80
2023-03-29T01:25:58.174Z,22.80
2023-03-29T01:26:58.142Z,22.79
2023-03-29T01:27:58.181Z,22.80
2023-03-29T01:28:58.141Z,22.80
2023-03-29T01:29:58.131Z,22.80
2023-03-29T01:30:58.129Z,22.80
2023-03-29T01:31:58.174Z,22.80
2023-03-29T01:32:58.137Z,22.81
2023-03-29T01:33:58.120Z,22.80
2023-03-29T01:34:58.118Z,22.80
2023-03-29T01:35:58.063Z,22.81
2023-03-29T01:36:58.074Z,22.80
2023-03-29T01:37:58.076Z,22.80
2023-03-29T01:38:58.112Z,22.81
2023-03-29T01:39:58.070Z,22.80
2023-03-29T01:40:58.061Z,22.80
2023-03-29T01:41:58.061Z,22.81
2023-03-29T01:42:58.076Z,22.80
2023-03-29T01:43:57.998Z,22.80
2023-03-29T01:44:58.028Z,22.79
2023-03-29T01:45:58.117Z,22.80
2023-03-29T01:46:57.988Z,22.80
2023-03-29T01:47:58.099Z,22.79
2023-03-29T01:48:57.959Z,22.79
2023-03-29T01:49:58.013Z,22.79
2023-03-29T01:50:57.991Z,22.80
2023-03-29T01:51:57.970Z,22.80
2023-03-29T01:52:57.961Z,22.80
2023-03-29T01:53:57.991Z,22.80
2023-03-29T01:54:57.935Z,22.81
2023-03-29T01:55:57.947Z,22.81
2023-03-29T01:56:57.982Z,22.80
2023-03-29T01:57:57.964Z,22.80
2023-03-29T01:58:57.922Z,22.80
2023-03-29T01:59:57.891Z,22.80
2023-03-29T02:00:57.970Z,22.81
2023-03-29T02:01:57.964Z,22.80
2023-03-29T02:02:57.950Z,22.80
2023-03-29T02:03:57.894Z,22.81
2023-03-29T02:04:57.921Z,22.81
2023-03-29T02:05:57.866Z,22.81
2023-03-29T02:06:57.855Z,22.82
2023-03-29T02:07:57.877Z,22.81
2023-03-29T02:08:57.848Z,22.81
2023-03-29T02:09:57.848Z,22.81
2023-03-29T02:10:57.827Z,22.81
2023-03-29T02:11:57.808Z,22.82
2023-03-29T02:12:57.821Z,22.82
2023-03-29T02:13:57.818Z,22.82
2023-03-29T02:14:57.771Z,22.82
2023-03-29T02:15:57.806Z,22.82
2023-03-29T02:16:57.768Z,22.82
2023-03-29T02:17:57.874Z,22.82
2023-03-29T02:18:57.748Z,22.81
2023-03-29T02:19:57.753Z,22.82
2023-03-29T02:20:57.775Z,22.82
2023-03-29T02:21:57.775Z,22.82
2023-03-29T02:22:57.754Z,22.82
2023-03-29T02:23:57.752Z,22.82
2023-03-29T02:24:57.730Z,22.82
2023-03-29T02:25:57.741Z,22.82
2023-03-29T02:26:57.744Z,22.81
2023-03-29T02:27:57.735Z,22.82
2023-03-29T02:28:57.708Z,22.82
2023-03-29T02:29:57.671Z,22.82
2023-03-29T02:30:57.736Z,22.82
2023-03-29T02:31:57.688Z,22.82
2023-03-29T02:32:57.688Z,22.82
2023-03-29T02:33:57.663Z,22.82
2023-03-29T02:34:57.665Z,22.82
2023-03-29T02:35:57.665Z,22.82
2023-03-29T02:36:57.679Z,22.82
2023-03-29T02:37:57.757Z,22.83
2023-03-29T02:38:57.628Z,22.83
2023-03-29T02:39:57.642Z,22.83
2023-03-29T02:40:57.605Z,22.83
2023-03-29T02:41:57.625Z,22.83
2023-03-29T02:42:57.691Z,22.83
2023-03-29T02:43:57.589Z,22.83
2023-03-29T02:44:57.571Z,22.82
2023-03-29T02:45:57.580Z,22.83
2023-03-29T02:46:57.680Z,22.83
2023-03-29T02:47:57.614Z,22.83
2023-03-29T02:48:57.575Z,22.83
2023-03-29T02:49:57.534Z,22.83
2023-03-29T02:50:57.571Z,22.82
2023-03-29T02:51:57.534Z,22.82
2023-03-29T02:52:57.525Z,22.82
2023-03-29T02:53:57.519Z,22.83
2023-03-29T02:54:57.496Z,22.82
2023-03-29T02:55:57.504Z,22.82
2023-03-29T02:56:57.498Z,22.83
2023-03-29T02:57:57.515Z,22.82
2023-03-29T02:58:57.470Z,22.83
2023-03-29T02:59:57.496Z,22.82
2023-03-29T03:00:57.487Z,22.82
2023-03-29T03:01:57.501Z,22.83
2023-03-29T03:02:59.277Z,22.83
2023-03-29T03:03:57.527Z,22.83
2023-03-29T03:04:57.466Z,22.84
2023-03-29T03:05:57.436Z,22.84
2023-03-29T03:06:57.421Z,22.85
2023-03-29T03:07:57.436Z,22.85
2023-03-29T03:08:57.412Z,22.86
2023-03-29T03:09:57.397Z,22.88
2023-03-29T03:10:57.399Z,22.88
2023-03-29T03:11:57.373Z,22.89
2023-03-29T03:12:57.395Z,22.90
2023-03-29T03:13:57.384Z,22.90
2023-03-29T03:14:57.390Z,22.91
2023-03-29T03:15:57.415Z,22.92
2023-03-29T03:16:57.395Z,22.93
2023-03-29T03:17:57.401Z,22.94
2023-03-29T03:18:57.348Z,22.96
2023-03-29T03:19:57.339Z,22.96
2023-03-29T03:20:57.317Z,22.97
2023-03-29T03:21:57.321Z,22.98
2023-03-29T03:22:57.324Z,22.99
2023-03-29T03:23:57.290Z,23.00
2023-03-29T03:24:57.285Z,23.00
2023-03-29T03:25:57.286Z,23.01
2023-03-29T03:26:57.317Z,23.03
2023-03-29T03:27:57.249Z,23.04
2023-03-29T03:28:57.237Z,23.05
2023-03-29T03:29:57.261Z,23.06
2023-03-29T03:30:57.256Z,23.06
2023-03-29T03:31:57.249Z,23.08
2023-03-29T03:32:57.280Z,23.09
2023-03-29T03:33:57.241Z,23.10
2023-03-29T03:34:57.207Z,23.10
2023-03-29T03:35:57.342Z,23.11
2023-03-29T03:36:57.211Z,23.12
2023-03-29T03:37:57.170Z,23.13
2023-03-29T03:38:57.184Z,23.14
2023-03-29T03:39:57.191Z,23.14
2023-03-29T03:40:57.175Z,23.15
2023-03-29T03:41:57.146Z,23.15
2023-03-29T03:42:57.213Z,23.16
2023-03-29T03:43:57.150Z,23.17
2023-03-29T03:44:57.163Z,23.17
2023-03-29T03:45:57.156Z,23.17
2023-03-29T03:46:57.135Z,23.17
2023-03-29T03:47:57.212Z,23.18
2023-03-29T03:48:57.210Z,23.19
2023-03-29T03:49:57.092Z,23.19
2023-03-29T03:50:57.076Z,23.20
2023-03-29T03:51:57.121Z,23.20
2023-03-29T03:52:57.315Z,23.20
2023-03-29T03:53:57.210Z,23.21
2023-03-29T03:54:57.225Z,23.21
2023-03-29T03:55:57.315Z,23.21
2023-03-29T03:56:58.190Z,23.22
2023-03-29T03:57:57.416Z,23.23
2023-03-29T03:58:57.447Z,23.22
2023-03-29T03:59:57.521Z,23.23
2023-03-29T04:00:57.512Z,23.23
2023-03-29T04:01:57.603Z,23.23
2023-03-29T04:02:57.743Z,23.24
2023-03-29T04:03:57.717Z,23.24
2023-03-29T04:04:57.729Z,23.24
2023-03-29T04:05:57.789Z,23.25
2023-03-29T04:06:57.827Z,23.24
2023-03-29T04:07:57.875Z,23.25
2023-03-29T04:08:57.953Z,23.25
2023-03-29T04:09:57.981Z,23.25
2023-03-29T04:10:58.026Z,23.26
2023-03-29T04:11:58.069Z,23.26
2023-03-29T04:12:58.092Z,23.26
2023-03-29T04:13:58.153Z,23.26
2023-03-29T04:14:58.210Z,23.26
2023-03-29T04:16:00.887Z,23.27
2023-03-29T04:16:58.301Z,23.27
2023-03-29T04:17:58.323Z,23.27
2023-03-29T04:18:58.279Z,23.28
2023-03-29T04:19:58.215Z,23.29
2023-03-29T04:20:58.246Z,23.28
2023-03-29T04:21:58.219Z,23.29
2023-03-29T04:22:58.228Z,23.29
2023-03-29T04:23:58.214Z,23.30
2023-03-29T04:24:58.215Z,23.30
2023-03-29T04:25:58.190Z,23.30
2023-03-29T04:26:58.200Z,23.30
2023-03-29T04:27:58.170Z,23.31
2023-03-29T04:28:58.185Z,23.31
2023-03-29T04:29:58.199Z,23.31
2023-03-29T04:30:58.185Z,23.31
2023-03-29T04:31:58.157Z,23.32
2023-03-29T04:32:58.159Z,23.31
2023-03-29T04:34:00.326Z,23.32
2023-03-29T04:34:58.127Z,23.32
2023-03-29T04:35:58.181Z,23.32
2023-03-29T04:36:58.199Z,23.31
2023-03-29T04:37:58.258Z,23.31
2023-03-29T04:38:58.311Z,23.31
2023-03-29T04:39:58.345Z,23.31
2023-03-29T04:40:58.375Z,23.30
2023-03-29T04:41:58.424Z,23.29
2023-03-29T04:42:58.484Z,23.30
2023-03-29T04:43:58.497Z,23.30
2023-03-29T04:44:58.596Z,23.29
2023-03-29T04:45:58.628Z,23.28
2023-03-29T04:46:58.646Z,23.27
2023-03-29T04:47:58.760Z,23.25
2023-03-29T04:48:58.728Z,23.25
2023-03-29T04:49:58.758Z,23.24
2023-03-29T04:50:58.907Z,23.24
2023-03-29T04:51:58.904Z,23.24
2023-03-29T04:52:58.911Z,23.22
2023-03-29T04:53:58.980Z,23.21
2023-03-29T04:54:59.053Z,23.20
2023-03-29T04:55:59.120Z,23.20
2023-03-29T04:56:59.160Z,23.20
2023-03-29T04:57:59.252Z,23.21
2023-03-29T04:58:59.322Z,23.21
2023-03-29T04:59:59.337Z,23.21
2023-03-29T05:01:06.969Z,23.21
2023-03-29T05:01:59.412Z,23.21
2023-03-29T05:02:59.362Z,23.21
2023-03-29T05:03:59.379Z,23.21
2023-03-29T05:04:59.386Z,23.21
2023-03-29T05:05:59.314Z,23.20
2023-03-29T05:06:59.297Z,23.20
2023-03-29T05:07:59.279Z,23.19
2023-03-29T05:08:59.286Z,23.18
2023-03-29T05:09:59.246Z,23.17
2023-03-29T05:10:59.356Z,23.16
2023-03-29T05:11:59.276Z,23.16
2023-03-29T05:12:59.279Z,23.08
2023-03-29T05:13:59.251Z,22.81
2023-03-29T05:14:59.250Z,22.45
2023-03-29T05:15:59.289Z,22.08
2023-03-29T05:16:59.241Z,21.83
2023-03-29T05:17:59.255Z,21.62
2023-03-29T05:18:59.182Z,21.47
2023-03-29T05:19:59.190Z,21.29
2023-03-29T05:20:59.227Z,21.20
2023-03-29T05:21:59.273Z,21.21
2023-03-29T05:22:59.270Z,21.23
2023-03-29T05:23:59.343Z,21.26
2023-03-29T05:24:59.402Z,21.31
2023-03-29T05:26:00.619Z,21.32
2023-03-29T05:26:59.464Z,21.35
2023-03-29T05:27:59.513Z,21.37
2023-03-29T05:28:59.515Z,21.29
2023-03-29T05:29:59.524Z,21.17
2023-03-29T05:30:59.788Z,21.03
2023-03-29T05:31:59.703Z,20.87
2023-03-29T05:32:59.719Z,20.80
2023-03-29T05:33:59.738Z,20.80
2023-03-29T05:34:59.744Z,20.66
2023-03-29T05:35:59.860Z,20.65
2023-03-29T05:36:59.872Z,20.71
2023-03-29T05:37:59.953Z,20.66
2023-03-29T05:39:00.364Z,20.46
2023-03-29T05:40:05.762Z,20.11
2023-03-29T05:41:01.270Z,19.54
2023-03-29T05:42:00.152Z,18.87
2023-03-29T05:43:00.006Z,18.19
2023-03-29T05:44:00.355Z,17.78
2023-03-29T05:45:00.154Z,17.35
2023-03-29T05:47:27.085Z,16.70
2023-03-29T05:48:19.661Z,16.82
2023-03-29T05:49:19.296Z,16.69
2023-03-29T05:50:18.944Z,16.48
2023-03-29T05:51:18.968Z,16.29
2023-03-29T05:52:18.967Z,16.07
2023-03-29T05:53:18.980Z,15.95
2023-03-29T05:54:18.986Z,15.82
2023-03-29T05:55:18.988Z,15.61
2023-03-29T05:56:19.068Z,15.37
2023-03-29T05:57:19.107Z,15.37
2023-03-29T05:58:19.057Z,15.29
2023-03-29T05:59:19.102Z,15.16
2023-03-29T06:00:19.096Z,15.13
2023-03-29T06:01:19.089Z,15.04
2023-03-29T06:02:19.145Z,14.96
2023-03-29T06:03:21.214Z,14.83
2023-03-29T06:04:19.088Z,14.71
2023-03-29T06:05:19.158Z,15.24
2023-03-29T06:06:19.056Z,15.96
2023-03-29T06:07:19.023Z,16.62
2023-03-29T06:08:19.022Z,17.22
2023-03-29T06:09:19.096Z,17.74
2023-03-29T06:10:18.987Z,18.21
2023-03-29T06:11:19.051Z,18.62
2023-03-29T06:12:19.056Z,19.00
2023-03-29T06:13:18.954Z,19.31
2023-03-29T06:14:19.081Z,19.59
2023-03-29T06:15:18.970Z,19.83
2023-03-29T06:16:19.013Z,20.03
2023-03-29T06:17:19.068Z,20.22
2023-03-29T06:18:18.995Z,20.38
2023-03-29T06:19:18.949Z,20.51
2023-03-29T06:20:18.960Z,20.65
2023-03-29T06:21:18.913Z,20.75
2023-03-29T06:22:18.988Z,20.86
2023-03-29T06:23:18.931Z,20.95
2023-03-29T06:24:18.936Z,21.02
2023-03-29T06:25:18.884Z,21.10
2023-03-29T06:26:19.827Z,21.17
2023-03-29T06:27:18.893Z,21.22
2023-03-29T06:28:18.877Z,21.29
2023-03-29T06:29:18.930Z,21.34
2023-03-29T06:30:18.884Z,21.39
2023-03-29T06:31:18.957Z,21.44
2023-03-29T06:32:18.877Z,21.49
2023-03-29T06:33:18.897Z,21.52
2023-03-29T06:34:19.003Z,21.55
2023-03-29T06:35:18.808Z,21.59
2023-03-29T06:36:18.851Z,21.63
2023-03-29T06:37:18.926Z,21.67
2023-03-29T06:38:18.830Z,21.72
2023-03-29T06:39:18.930Z,21.78
2023-03-29T06:40:18.798Z,21.87
2023-03-29T06:41:18.800Z,22.02
2023-03-29T06:42:21.598Z,22.04
2023-03-29T06:43:18.773Z,22.05
2023-03-29T06:44:19.230Z,22.06
2023-03-29T06:45:20.634Z,22.06
2023-03-29T06:46:19.274Z,22.07
2023-03-29T06:47:26.606Z,22.09
2023-03-29T06:48:18.859Z,22.08
2023-03-29T06:49:19.307Z,22.08
2023-03-29T06:50:18.747Z,22.07
2023-03-29T06:51:20.595Z,22.08
2023-03-29T06:52:19.245Z,22.06
2023-03-29T06:53:18.948Z,22.04
2023-03-29T06:54:18.686Z,22.03
2023-03-29T06:55:18.692Z,22.03
2023-03-29T06:56:18.746Z,22.02
2023-03-29T06:57:18.775Z,22.02
2023-03-29T06:58:18.665Z,22.03
2023-03-29T06:59:19.094Z,22.01
2023-03-29T07:01:37.709Z,22.01
2023-03-29T07:02:37.592Z,22.02
2023-03-29T07:03:37.785Z,22.04
2023-03-29T07:04:37.715Z,22.05
2023-03-29T07:05:37.550Z,22.05
2023-03-29T07:06:37.511Z,22.06
2023-03-29T07:07:37.513Z,22.07
2023-03-29T07:08:37.507Z,22.10
2023-03-29T07:09:37.810Z,22.12
2023-03-29T07:10:37.479Z,22.12
2023-03-29T07:11:37.528Z,22.13
2023-03-29T07:12:37.609Z,22.14
2023-03-29T07:13:37.600Z,22.15
2023-03-29T07:14:37.749Z,22.16
2023-03-29T07:15:37.656Z,22.16
2023-03-29T07:16:37.813Z,22.17
2023-03-29T07:17:37.807Z,22.17
2023-03-29T07:18:37.749Z,22.18
2023-03-29T07:19:37.785Z,22.20
2023-03-29T07:20:37.810Z,22.22
2023-03-29T07:21:38.074Z,22.23
2023-03-29T07:22:37.901Z,22.25
2023-03-29T07:23:37.967Z,22.25
2023-03-29T07:24:38.015Z,22.17
2023-03-29T07:25:38.014Z,22.17
2023-03-29T07:26:38.036Z,22.19
2023-03-29T07:27:38.103Z,22.20
2023-03-29T07:28:38.044Z,22.20
2023-03-29T07:29:38.267Z,22.21
2023-03-29T07:30:38.133Z,22.22
2023-03-29T07:31:38.173Z,22.23
2023-03-29T07:32:38.226Z,22.27
2023-03-29T07:33:38.356Z,22.35
2023-03-29T07:34:38.210Z,22.44
2023-03-29T07:35:38.265Z,22.48
2023-03-29T07:36:38.229Z,22.42
2023-03-29T07:37:38.216Z,22.45
2023-03-29T07:38:38.300Z,22.46
2023-03-29T07:39:38.290Z,22.47
2023-03-29T07:40:38.301Z,22.47
2023-03-29T07:41:38.312Z,22.48
2023-03-29T07:42:38.313Z,22.49
2023-03-29T07:43:38.323Z,22.47
2023-03-29T07:44:38.331Z,22.42
2023-03-29T07:45:38.778Z,22.42
2023-03-29T07:46:38.382Z,22.39
2023-03-29T07:47:39.180Z,22.37
2023-03-29T07:48:38.454Z,22.40
2023-03-29T07:49:38.462Z,22.44
2023-03-29T07:50:38.469Z,22.46
2023-03-29T07:51:38.451Z,22.45
2023-03-29T07:52:38.479Z,22.44
2023-03-29T07:54:57.331Z,22.36
2023-03-29T07:55:57.336Z,22.37
2023-03-29T07:56:57.446Z,22.39
2023-03-29T07:57:57.315Z,22.39
2023-03-29T07:58:57.319Z,22.38
2023-03-29T07:59:57.302Z,22.39
2023-03-29T08:00:57.478Z,22.39
2023-03-29T08:01:57.297Z,22.38
2023-03-29T08:02:57.385Z,22.39
2023-03-29T08:03:57.376Z,22.37
2023-03-29T08:04:57.338Z,22.36
2023-03-29T08:05:57.352Z,22.36
2023-03-29T08:06:57.328Z,22.37
2023-03-29T08:07:57.944Z,22.37
2023-03-29T08:08:57.262Z,22.37
2023-03-29T08:09:57.264Z,22.37
2023-03-29T08:10:57.216Z,22.36
2023-03-29T08:11:57.324Z,22.35
2023-03-29T08:12:57.206Z,22.35
2023-03-29T08:13:57.225Z,22.35
2023-03-29T08:14:57.284Z,22.35
2023-03-29T08:15:57.253Z,22.34
2023-03-29T08:16:57.388Z,22.35
2023-03-29T08:17:57.209Z,22.36
2023-03-29T08:18:57.224Z,22.36
2023-03-29T08:19:58.450Z,22.37
2023-03-29T08:20:57.212Z,22.38
2023-03-29T08:21:57.172Z,22.38
2023-03-29T08:22:57.957Z,22.38
2023-03-29T08:23:57.133Z,22.39
2023-03-29T08:24:57.132Z,22.38
2023-03-29T08:25:57.157Z,22.38
2023-03-29T08:26:57.135Z,22.38
2023-03-29T08:27:57.610Z,22.39
2023-03-29T08:28:57.102Z,22.41
2023-03-29T08:29:57.320Z,22.43
2023-03-29T08:30:57.125Z,22.45
2023-03-29T08:31:57.097Z,22.41
2023-03-29T08:32:57.082Z,22.30
2023-03-29T08:33:57.038Z,22.10
2023-03-29T08:34:57.561Z,21.84
2023-03-29T08:35:57.077Z,21.65
2023-03-29T08:36:57.022Z,21.52
2023-03-29T08:37:57.062Z,21.43
2023-03-29T08:38:57.004Z,21.43
2023-03-29T08:39:57.049Z,21.50
2023-03-29T08:40:57.099Z,21.58
2023-03-29T08:41:57.034Z,21.67
2023-03-29T08:42:56.968Z,21.74
2023-03-29T08:43:57.021Z,21.81
2023-03-29T08:44:57.054Z,21.87
2023-03-29T08:45:57.011Z,21.91
2023-03-29T08:46:57.064Z,21.88
2023-03-29T08:47:57.080Z,21.86
2023-03-29T08:48:56.994Z,21.85
2023-03-29T08:49:57.035Z,21.85
2023-03-29T08:50:57.026Z,21.83
2023-03-29T08:51:57.029Z,21.87
2023-03-29T08:52:57.035Z,21.87
2023-03-29T08:53:57.048Z,21.27
2023-03-29T08:54:57.092Z,21.05
2023-03-29T08:55:57.139Z,20.99
2023-03-29T08:56:57.139Z,21.08
2023-03-29T08:57:57.103Z,21.23
2023-03-29T08:58:57.120Z,21.35
2023-03-29T08:59:57.125Z,21.45
2023-03-29T09:00:57.116Z,21.55
2023-03-29T09:01:57.245Z,21.66
2023-03-29T09:02:57.309Z,21.75
2023-03-29T09:03:57.376Z,21.81
2023-03-29T09:04:57.420Z,21.87
2023-03-29T09:05:57.510Z,21.94
2023-03-29T09:06:57.403Z,21.99
2023-03-29T09:07:57.507Z,22.03
2023-03-29T09:08:57.493Z,22.07
2023-03-29T09:09:57.553Z,22.11
2023-03-29T09:10:57.606Z,22.14
2023-03-29T09:11:57.619Z,22.16
2023-03-29T09:12:57.711Z,22.20
2023-03-29T09:13:57.695Z,22.21
2023-03-29T09:14:57.733Z,22.22
2023-03-29T09:15:57.784Z,22.24
2023-03-29T09:16:57.782Z,22.25
2023-03-29T09:17:57.835Z,22.21
2023-03-29T09:18:57.826Z,22.23
2023-03-29T09:19:58.080Z,22.24
2023-03-29T09:20:58.173Z,22.24
2023-03-29T09:21:57.993Z,22.26
2023-03-29T09:22:57.931Z,22.27
2023-03-29T09:23:58.003Z,22.28
2023-03-29T09:24:58.045Z,22.28
2023-03-29T09:25:58.053Z,22.28
2023-03-29T09:26:58.044Z,22.28
2023-03-29T09:27:58.109Z,22.28
2023-03-29T09:28:58.145Z,22.28
2023-03-29T09:29:58.174Z,22.28
2023-03-29T09:30:58.180Z,22.28
2023-03-29T09:31:58.287Z,22.29
2023-03-29T09:32:58.287Z,22.29
2023-03-29T09:33:58.307Z,22.30
2023-03-29T09:34:58.339Z,22.30
2023-03-29T09:35:58.715Z,22.30
2023-03-29T09:36:58.397Z,22.30
2023-03-29T09:37:58.394Z,22.29
2023-03-29T09:38:58.453Z,22.29
2023-03-29T09:39:58.520Z,22.29
2023-03-29T09:40:58.761Z,22.27
2023-03-29T09:41:58.589Z,22.29
2023-03-29T09:42:58.686Z,22.32
2023-03-29T09:43:58.686Z,22.33
2023-03-29T09:44:58.770Z,22.33
2023-03-29T09:45:59.149Z,22.29
2023-03-29T09:46:58.764Z,22.27
2023-03-29T09:47:58.887Z,22.27
2023-03-29T09:48:58.813Z,22.28
2023-03-29T09:49:58.937Z,22.30
2023-03-29T09:50:58.937Z,22.30
2023-03-29T09:51:58.988Z,22.32
2023-03-29T09:52:59.025Z,22.33
2023-03-29T09:53:59.034Z,22.34
2023-03-29T09:54:58.996Z,22.35
2023-03-29T09:55:59.035Z,22.35
2023-03-29T09:56:59.089Z,22.36
2023-03-29T09:57:59.165Z,22.37
2023-03-29T09:58:59.149Z,22.38
2023-03-29T09:59:59.179Z,22.38
2023-03-29T10:00:59.792Z,22.38
2023-03-29T10:01:59.233Z,22.40
2023-03-29T10:02:59.249Z,22.41
2023-03-29T10:03:59.200Z,22.43
2023-03-29T10:04:59.254Z,22.42
2023-03-29T10:05:59.592Z,22.44
2023-03-29T10:06:59.218Z,22.44
2023-03-29T10:07:59.325Z,22.41
2023-03-29T10:09:00.362Z,22.39
2023-03-29T10:09:59.423Z,22.39
2023-03-29T10:10:59.322Z,22.39
2023-03-29T10:11:59.392Z,22.38
2023-03-29T10:12:59.425Z,22.34
2023-03-29T10:13:59.400Z,22.34
2023-03-29T10:14:59.441Z,22.35
2023-03-29T10:15:59.685Z,22.36
2023-03-29T10:16:59.538Z,22.37
2023-03-29T10:17:59.602Z,22.38
2023-03-29T10:19:00.466Z,22.26
2023-03-29T10:20:01.450Z,22.23
2023-03-29T10:20:59.647Z,22.25
2023-03-29T10:21:59.519Z,22.27
2023-03-29T10:22:59.521Z,22.30
2023-03-29T10:23:59.489Z,22.32
2023-03-29T10:24:59.522Z,22.33
2023-03-29T10:25:59.497Z,22.36
2023-03-29T10:26:59.504Z,22.40
2023-03-29T10:27:59.438Z,22.44
2023-03-29T10:28:59.486Z,22.41
2023-03-29T10:29:59.445Z,22.39
2023-03-29T10:30:59.441Z,22.39
2023-03-29T10:31:59.438Z,22.39
2023-03-29T10:32:59.375Z,22.40
2023-03-29T10:33:59.371Z,22.40
2023-03-29T10:35:00.014Z,22.41
2023-03-29T10:35:59.632Z,22.42
2023-03-29T10:36:59.351Z,22.45
2023-03-29T10:37:59.370Z,22.50
2023-03-29T10:38:59.410Z,22.52
2023-03-29T10:39:59.358Z,22.57
2023-03-29T10:40:59.329Z,22.64
2023-03-29T10:41:59.332Z,22.70
2023-03-29T10:42:59.328Z,22.71
2023-03-29T10:43:59.302Z,22.72
2023-03-29T10:44:59.414Z,22.75
2023-03-29T10:45:59.359Z,22.77
2023-03-29T10:46:59.263Z,22.77
2023-03-29T10:47:59.372Z,22.77
2023-03-29T10:48:59.274Z,22.78
2023-03-29T10:49:59.296Z,22.77
2023-03-29T10:50:59.328Z,22.75
2023-03-29T10:51:59.253Z,22.74
2023-03-29T10:52:59.277Z,22.75
2023-03-29T10:53:59.222Z,22.73
2023-03-29T10:54:59.362Z,22.72
2023-03-29T10:55:59.228Z,22.71
2023-03-29T10:56:59.234Z,22.71
2023-03-29T10:57:59.202Z,22.69
2023-03-29T10:58:59.194Z,22.68
2023-03-29T10:59:59.176Z,22.68
2023-03-29T11:00:59.184Z,22.66
2023-03-29T11:01:59.212Z,22.65
2023-03-29T11:02:59.220Z,22.64
2023-03-29T11:03:59.277Z,22.64
2023-03-29T11:04:59.210Z,22.63
2023-03-29T11:05:59.146Z,22.61
2023-03-29T11:06:59.154Z,22.61
2023-03-29T11:07:59.173Z,22.61
2023-03-29T11:08:59.132Z,22.61
2023-03-29T11:09:59.103Z,22.61
2023-03-29T11:10:59.110Z,22.61
2023-03-29T11:12:14.425Z,22.61
2023-03-29T11:13:00.122Z,22.60
2023-03-29T11:14:00.061Z,22.60
2023-03-29T11:14:59.074Z,22.59
2023-03-29T11:15:59.185Z,22.59
2023-03-29T11:17:06.949Z,22.58
2023-03-29T11:17:59.134Z,22.57
2023-03-29T11:18:59.075Z,22.58
2023-03-29T11:19:59.070Z,22.57
2023-03-29T11:20:59.132Z,22.58
2023-03-29T11:21:59.041Z,22.58
2023-03-29T11:22:59.050Z,22.58
2023-03-29T11:23:59.058Z,22.57
2023-03-29T11:24:59.064Z,22.50
2023-03-29T11:25:59.140Z,22.48
2023-03-29T11:26:59.028Z,22.49
2023-03-29T11:27:59.028Z,22.53
2023-03-29T11:28:58.986Z,22.50
2023-03-29T11:29:58.989Z,22.53
2023-03-29T11:30:59.200Z,22.58
2023-03-29T11:31:59.264Z,22.49
2023-03-29T11:32:59.034Z,22.45
2023-03-29T11:33:59.103Z,22.44
2023-03-29T11:34:59.021Z,22.38
2023-03-29T11:35:59.182Z,22.31
2023-03-29T11:36:59.142Z,22.27
2023-03-29T11:37:59.117Z,22.21
2023-03-29T11:38:59.137Z,22.18
2023-03-29T11:39:59.192Z,22.15
2023-03-29T11:40:59.236Z,22.08
2023-03-29T11:41:59.238Z,22.10
2023-03-29T11:42:59.241Z,22.09
2023-03-29T11:43:59.422Z,22.11
2023-03-29T11:44:59.369Z,22.13
2023-03-29T11:45:59.671Z,22.18
2023-03-29T11:46:59.461Z,22.21
2023-03-29T11:47:59.565Z,22.22
2023-03-29T11:48:59.551Z,22.25
2023-03-29T11:49:59.545Z,22.28
2023-03-29T11:50:59.607Z,22.30
2023-03-29T11:51:59.646Z,22.32
2023-03-29T11:52:59.647Z,22.35
2023-03-29T11:53:59.614Z,22.38
2023-03-29T11:54:59.684Z,22.40
2023-03-29T11:55:59.683Z,22.41
2023-03-29T11:56:59.755Z,22.41
2023-03-29T11:57:59.795Z,22.41
2023-03-29T11:58:59.754Z,22.43
2023-03-29T11:59:59.781Z,22.43
2023-03-29T12:01:00.326Z,22.43
2023-03-29T12:01:59.879Z,22.44
2023-03-29T12:02:59.929Z,22.45
2023-03-29T12:03:59.878Z,22.48
2023-03-29T12:05:07.519Z,22.50
2023-03-29T12:05:59.935Z,22.51
2023-03-29T12:06:59.873Z,22.53
2023-03-29T12:07:59.869Z,22.56
2023-03-29T12:08:59.838Z,22.59
2023-03-29T12:09:59.886Z,22.62
2023-03-29T12:10:59.838Z,22.68
2023-03-29T12:11:59.860Z,22.72
2023-03-29T12:12:59.825Z,22.75
2023-03-29T12:13:59.839Z,22.75
2023-03-29T12:14:59.819Z,22.72
2023-03-29T12:15:59.795Z,22.74
2023-03-29T12:16:59.831Z,22.76
2023-03-29T12:17:59.825Z,22.78
2023-03-29T12:18:59.799Z,22.80
2023-03-29T12:19:59.751Z,22.82
2023-03-29T12:20:59.823Z,22.85
2023-03-29T12:21:59.780Z,22.87
2023-03-29T12:22:59.789Z,22.88
2023-03-29T12:23:59.710Z,22.89
2023-03-29T12:24:59.694Z,22.89
2023-03-29T12:25:59.756Z,22.89
2023-03-29T12:26:59.764Z,22.90
2023-03-29T12:27:59.758Z,22.91
2023-03-29T12:28:59.755Z,22.91
2023-03-29T12:29:59.731Z,22.92
2023-03-29T12:30:59.693Z,22.92
2023-03-29T12:31:59.737Z,22.90
2023-03-29T12:32:59.747Z,22.89
2023-03-29T12:33:59.696Z,22.86
2023-03-29T12:34:59.663Z,22.84
2023-03-29T12:35:59.711Z,22.81
2023-03-29T12:36:59.656Z,22.81
2023-03-29T12:37:59.621Z,22.80
2023-03-29T12:38:59.659Z,22.80
2023-03-29T12:39:59.672Z,22.78
2023-03-29T12:40:59.749Z,22.77
2023-03-29T12:41:59.601Z,22.76
2023-03-29T12:42:59.614Z,22.76
2023-03-29T12:43:59.586Z,22.77
2023-03-29T12:44:59.574Z,22.80
2023-03-29T12:45:59.585Z,22.81
2023-03-29T12:46:59.606Z,22.83
2023-03-29T12:47:59.635Z,22.84
2023-03-29T12:48:59.557Z,22.86
2023-03-29T12:49:59.558Z,22.82
2023-03-29T12:50:59.553Z,22.82
2023-03-29T12:51:59.616Z,22.82
2023-03-29T12:52:59.521Z,22.82
2023-03-29T12:54:00.635Z,22.82
2023-03-29T12:54:59.547Z,22.84
2023-03-29T12:55:59.567Z,22.82
2023-03-29T12:56:59.596Z,22.82